createdAt,value
2023-04-24T00:00:48.096Z,8.80
2023-04-24T00:04:48.039Z,9.50
2023-04-24T00:08:46.045Z,8.80
2023-04-24T00:12:43.990Z,8.70
2023-04-24T00:16:42.010Z,9.30
2023-04-24T00:20:40.004Z,8.60
2023-04-24T00:24:37.988Z,5.90
2023-04-24T00:28:35.947Z,7.80
2023-04-24T00:32:33.993Z,8.80
2023-04-24T00:36:31.970Z,8.80
2023-04-24T00:40:29.972Z,7.60
2023-04-24T00:44:27.939Z,8.60
2023-04-24T00:48:26.961Z,7.90
2023-04-24T00:52:24.967Z,8.20
2023-04-24T00:56:23.004Z,8.80
2023-04-24T01:00:21.923Z,8.60
2023-04-24T01:04:20.187Z,8.60
2023-04-24T01:08:19.909Z,8.20
2023-04-24T01:12:20.104Z,8.10
2023-04-24T01:16:17.984Z,8.90
2023-04-24T01:20:15.903Z,8.60
2023-04-24T01:24:13.897Z,8.30
2023-04-24T01:28:11.894Z,8.50
2023-04-24T01:32:10.902Z,8.60
2023-04-24T01:36:09.885Z,8.60
2023-04-24T01:40:07.871Z,8.30
2023-04-24T01:44:05.934Z,9.00
2023-04-24T01:48:04.904Z,8.80
2023-04-24T01:52:03.117Z,8.70
2023-04-24T01:56:00.872Z,8.80
2023-04-24T01:59:58.972Z,8.70
2023-04-24T02:04:03.922Z,9.10
2023-04-24T02:08:01.989Z,8.30
2023-04-24T02:12:02.902Z,8.70
2023-04-24T02:16:00.982Z,8.40
2023-04-24T02:19:58.821Z,8.80
2023-04-24T02:23:56.953Z,8.80
2023-04-24T02:27:54.833Z,8.80
2023-04-24T02:31:52.949Z,7.70
2023-04-24T02:35:50.837Z,9.00
2023-04-24T02:39:48.823Z,8.80
2023-04-24T02:43:46.780Z,8.70
2023-04-24T02:47:44.903Z,8.00
2023-04-24T02:51:42.779Z,8.40
2023-04-24T02:55:40.807Z,8.30
2023-04-24T02:59:39.905Z,8.20
2023-04-24T03:03:37.958Z,8.40
2023-04-24T03:07:35.785Z,8.90
2023-04-24T03:11:33.860Z,7.80
2023-04-24T03:15:32.814Z,8.00
2023-04-24T03:19:30.865Z,8.40
2023-04-24T03:23:32.726Z,8.50
2023-04-24T03:27:30.790Z,8.60
2023-04-24T03:31:32.778Z,7.90
2023-04-24T03:35:30.824Z,8.60
2023-04-24T03:39:32.774Z,8.70
2023-04-24T03:43:30.856Z,8.90
2023-04-24T03:47:29.896Z,9.90
2023-04-24T03:51:30.768Z,8.70
2023-04-24T03:55:40.732Z,9.10
2023-04-24T03:59:38.841Z,8.90
2023-04-24T04:03:40.896Z,8.30
2023-04-24T04:07:39.760Z,9.50
2023-04-24T04:11:37.695Z,9.10
2023-04-24T04:15:36.896Z,9.80
2023-04-24T04:19:34.789Z,9.00
2023-04-24T04:23:32.755Z,7.80
2023-04-24T04:27:39.677Z,8.80
2023-04-24T04:31:37.793Z,7.20
2023-04-24T04:35:36.669Z,7.10
2023-04-24T04:39:35.738Z,7.50
2023-04-24T04:43:38.725Z,7.00
2023-04-24T04:47:39.711Z,6.20
2023-04-24T04:51:37.659Z,6.10
2023-04-24T04:55:36.686Z,6.70
2023-04-24T04:59:39.698Z,6.90
2023-04-24T05:03:41.758Z,6.00
2023-04-24T05:07:40.641Z,6.50
2023-04-24T05:11:39.686Z,6.70
2023-04-24T05:15:37.628Z,6.50
2023-04-24T05:19:35.752Z,6.20
2023-04-24T05:23:33.681Z,7.50
2023-04-24T05:27:31.666Z,7.20
2023-04-24T05:31:32.748Z,6.70
2023-04-24T05:35:30.698Z,6.40
2023-04-24T05:39:28.675Z,6.60
2023-04-24T05:43:26.648Z,7.00
2023-04-24T05:47:24.639Z,6.40
2023-04-24T05:51:22.702Z,6.40
2023-04-24T05:55:20.686Z,6.50
2023-04-24T05:59:18.659Z,6.80
2023-04-24T06:02:56.716Z,6.20
2023-04-24T06:06:21.393Z,5.80
2023-04-24T06:09:45.624Z,6.00
2023-04-24T06:13:09.696Z,5.80
2023-04-24T06:16:36.112Z,6.00
2023-04-24T06:20:07.269Z,6.10
2023-04-24T06:23:33.676Z,5.90
2023-04-24T06:26:58.354Z,6.30
2023-04-24T06:30:22.118Z,5.90
2023-04-24T06:33:46.049Z,6.50
2023-04-24T06:37:09.896Z,6.00
2023-04-24T06:40:34.588Z,6.50
2023-04-24T06:43:58.716Z,5.70
2023-04-24T06:47:22.707Z,5.70
2023-04-24T06:50:48.112Z,6.10
2023-04-24T06:57:36.143Z,6.30
2023-04-24T07:01:00.003Z,5.80
2023-04-24T07:04:26.347Z,6.40
2023-04-24T07:07:52.373Z,5.70
2023-04-24T07:11:16.784Z,5.50
2023-04-24T07:14:41.995Z,6.30
2023-04-24T07:18:06.090Z,6.00
2023-04-24T07:21:30.102Z,6.00
2023-04-24T07:24:53.938Z,6.40
2023-04-24T07:28:19.075Z,6.20
2023-04-24T07:31:43.176Z,6.00
2023-04-24T07:35:07.846Z,5.90
2023-04-24T07:38:32.607Z,6.10
2023-04-24T07:41:56.542Z,5.90
2023-04-24T07:45:20.477Z,5.80
2023-04-24T07:48:44.479Z,6.00
2023-04-24T07:52:08.768Z,6.00
2023-04-24T07:55:32.862Z,6.10
2023-04-24T07:58:56.724Z,5.50
2023-04-24T08:02:22.908Z,5.30
2023-04-24T08:05:47.232Z,5.20
2023-04-24T08:09:11.341Z,5.60
2023-04-24T08:12:35.522Z,5.50
2023-04-24T08:15:59.416Z,6.20
2023-04-24T08:19:23.605Z,7.10
2023-04-24T08:22:48.357Z,6.30
2023-04-24T08:26:12.808Z,6.30
2023-04-24T08:29:36.644Z,6.10
2023-04-24T08:33:00.579Z,6.70
2023-04-24T08:36:30.435Z,5.80
2023-04-24T08:40:00.275Z,6.80
2023-04-24T08:43:25.385Z,6.30
2023-04-24T08:46:52.427Z,6.00
2023-04-24T08:50:17.269Z,6.40
2023-04-24T08:53:42.360Z,6.10
2023-04-24T08:57:12.618Z,5.80
2023-04-24T09:00:36.590Z,5.60
2023-04-24T09:04:05.996Z,5.90
2023-04-24T09:07:32.438Z,5.60
2023-04-24T09:10:58.523Z,5.80
2023-04-24T09:14:24.719Z,5.80
2023-04-24T09:17:49.303Z,6.20
2023-04-24T09:21:13.869Z,5.50
2023-04-24T09:24:37.744Z,5.80
2023-04-24T09:28:07.934Z,5.40
2023-04-24T09:31:32.249Z,5.60
2023-04-24T09:35:14.067Z,5.80
2023-04-24T09:38:39.603Z,6.00
2023-04-24T09:42:03.467Z,5.70
2023-04-24T09:45:37.631Z,5.90
2023-04-24T09:49:22.410Z,5.50
2023-04-24T09:52:49.145Z,5.00
2023-04-24T09:56:14.215Z,5.60
2023-04-24T09:59:45.155Z,5.00
2023-04-24T10:03:09.457Z,5.30
2023-04-24T10:06:37.204Z,5.60
2023-04-24T10:10:01.589Z,5.30
2023-04-24T10:13:25.889Z,5.70
2023-04-24T10:16:50.657Z,5.60
2023-04-24T10:20:14.888Z,5.50
2023-04-24T10:23:39.745Z,5.00
2023-04-24T10:27:05.002Z,5.20
2023-04-24T10:30:36.348Z,4.90
2023-04-24T10:34:02.063Z,5.10
2023-04-24T10:37:27.975Z,5.20
2023-04-24T10:40:51.945Z,5.00
2023-04-24T10:44:17.360Z,5.00
2023-04-24T10:47:45.473Z,5.20
2023-04-24T10:51:14.122Z,5.80
2023-04-24T10:54:44.286Z,5.20
2023-04-24T10:58:08.171Z,5.10
2023-04-24T11:01:34.369Z,4.90
2023-04-24T11:04:58.397Z,5.60
2023-04-24T11:08:31.510Z,5.70
2023-04-24T11:12:15.474Z,5.30
2023-04-24T11:15:39.261Z,5.50
2023-04-24T11:19:05.034Z,4.80
2023-04-24T11:22:34.350Z,4.90
2023-04-24T11:26:15.422Z,5.50
2023-04-24T11:29:43.923Z,5.30
2023-04-24T11:33:08.363Z,5.50
2023-04-24T11:36:33.778Z,5.30
2023-04-24T11:40:00.796Z,5.20
2023-04-24T11:43:25.978Z,5.00
2023-04-24T11:46:49.854Z,6.40
2023-04-24T11:50:16.241Z,5.00
2023-04-24T11:53:42.206Z,5.30
2023-04-24T11:57:08.756Z,4.70
2023-04-24T12:00:35.308Z,5.50
2023-04-24T12:04:02.598Z,4.90
2023-04-24T12:07:26.687Z,5.70
2023-04-24T12:10:53.366Z,5.70
2023-04-24T12:14:17.247Z,4.90
2023-04-24T12:17:44.147Z,4.70
2023-04-24T12:21:23.115Z,4.50
2023-04-24T12:25:07.056Z,4.80
2023-04-24T12:28:39.857Z,5.10
2023-04-24T12:32:03.922Z,5.00
2023-04-24T12:35:30.892Z,5.10
2023-04-24T12:38:55.504Z,5.00
2023-04-24T12:42:31.810Z,4.50
2023-04-24T12:45:55.795Z,4.80
2023-04-24T12:49:19.765Z,4.70
2023-04-24T12:52:45.384Z,4.40
2023-04-24T12:56:09.265Z,4.70
2023-04-24T12:59:33.273Z,4.50
2023-04-24T13:02:57.377Z,4.60
2023-04-24T13:06:22.396Z,4.30
2023-04-24T13:13:10.954Z,4.80
2023-04-24T13:16:34.970Z,4.70
2023-04-24T13:19:58.828Z,4.10
2023-04-24T13:23:24.227Z,4.30
2023-04-24T13:26:48.277Z,4.60
2023-04-24T13:30:12.711Z,4.40
2023-04-24T13:33:57.233Z,4.20
2023-04-24T13:37:56.125Z,4.70
2023-04-24T13:41:55.271Z,4.20
2023-04-24T13:45:53.272Z,5.10
2023-04-24T13:49:51.195Z,4.90
2023-04-24T13:53:49.125Z,5.10
2023-04-24T13:57:47.259Z,4.90
2023-04-24T14:01:45.158Z,4.90
2023-04-24T14:05:43.159Z,5.00
2023-04-24T14:09:41.116Z,5.50
2023-04-24T14:13:39.145Z,4.80
2023-04-24T14:17:37.181Z,5.40
2023-04-24T14:21:35.108Z,4.90
2023-04-24T14:25:33.106Z,5.40
2023-04-24T14:29:35.288Z,5.30
2023-04-24T14:33:33.176Z,5.60
2023-04-24T14:37:31.151Z,5.10
2023-04-24T14:41:29.098Z,5.10
2023-04-24T14:45:27.210Z,4.50
2023-04-24T14:49:26.111Z,4.70
2023-04-24T14:53:24.147Z,5.20
2023-04-24T14:57:16.476Z,4.30
2023-04-24T15:01:14.188Z,4.60
2023-04-24T15:05:12.473Z,4.90
2023-04-24T15:09:10.074Z,5.70
2023-04-24T15:13:08.159Z,5.20
2023-04-24T15:17:06.308Z,5.60
2023-04-24T15:21:04.034Z,5.00
2023-04-24T15:25:02.181Z,4.80
2023-04-24T15:29:00.058Z,5.50
2023-04-24T15:32:58.265Z,5.30
2023-04-24T15:37:03.091Z,4.90
2023-04-24T15:41:01.137Z,5.10
2023-04-24T15:44:59.044Z,4.40
2023-04-24T15:49:00.185Z,4.70
2023-04-24T15:52:58.044Z,4.70
2023-04-24T15:56:56.147Z,4.30
2023-04-24T16:00:53.984Z,4.60
2023-04-24T16:04:52.215Z,5.60
2023-04-24T16:08:51.103Z,5.80
2023-04-24T16:12:49.065Z,5.80
2023-04-24T16:16:46.984Z,6.00
2023-04-24T16:20:45.079Z,4.80
2023-04-24T16:24:42.987Z,5.60
2023-04-24T16:28:41.101Z,4.80
2023-04-24T16:32:38.999Z,4.20
2023-04-24T16:36:38.187Z,4.60
2023-04-24T16:40:35.963Z,4.40
2023-04-24T16:44:33.990Z,4.90
2023-04-24T16:48:32.013Z,4.30
2023-04-24T16:52:31.036Z,4.10
2023-04-24T16:56:29.008Z,4.40
2023-04-24T17:00:28.008Z,4.40
2023-04-24T17:04:26.304Z,4.60
2023-04-24T17:08:25.000Z,4.80
2023-04-24T17:12:24.201Z,4.70
2023-04-24T17:16:22.017Z,5.20
2023-04-24T17:20:23.334Z,4.90
2023-04-24T17:24:22.498Z,5.30
2023-04-24T17:28:35.931Z,5.30
2023-04-24T17:32:33.956Z,4.60
2023-04-24T17:36:31.953Z,5.50
2023-04-24T17:40:30.016Z,5.60
2023-04-24T17:44:27.901Z,5.60
2023-04-24T17:48:27.002Z,5.30
2023-04-24T17:52:24.982Z,6.00
2023-04-24T17:56:22.972Z,5.10
2023-04-24T18:00:21.934Z,6.10
2023-04-24T18:04:20.261Z,5.80
2023-04-24T18:08:20.102Z,5.40
2023-04-24T18:12:18.044Z,6.00
2023-04-24T18:16:15.918Z,5.60
2023-04-24T18:20:14.003Z,5.90
2023-04-24T18:24:11.984Z,6.10
2023-04-24T18:28:09.953Z,5.90
2023-04-24T18:32:07.939Z,6.10
2023-04-24T18:36:05.939Z,6.20
2023-04-24T18:39:57.143Z,6.30
2023-04-24T18:43:54.912Z,8.10
2023-04-24T18:47:52.930Z,8.30
2023-04-24T18:51:54.345Z,7.90
2023-04-24T18:55:52.845Z,7.60
2023-04-24T18:59:50.903Z,6.60
2023-04-24T19:03:50.120Z,7.40
2023-04-24T19:07:48.926Z,7.10
2023-04-24T19:11:47.879Z,7.30
2023-04-24T19:15:46.813Z,6.50
2023-04-24T19:19:45.810Z,5.90
2023-04-24T19:23:45.959Z,6.30
2023-04-24T19:27:43.840Z,6.30
2023-04-24T19:31:44.968Z,9.00
2023-04-24T19:35:48.900Z,8.10
2023-04-24T19:39:46.836Z,6.80
2023-04-24T19:43:44.783Z,7.00
2023-04-24T19:47:42.948Z,7.40
2023-04-24T19:51:40.789Z,8.70
2023-04-24T19:55:38.807Z,8.40
2023-04-24T19:59:36.789Z,8.80
2023-04-24T20:03:35.205Z,8.70
2023-04-24T20:07:32.841Z,8.00
2023-04-24T20:11:30.822Z,8.50
2023-04-24T20:15:28.809Z,8.80
2023-04-24T20:19:26.832Z,8.80
2023-04-24T20:23:24.767Z,8.50
2023-04-24T20:27:22.865Z,8.00
2023-04-24T20:31:20.805Z,7.80
2023-04-24T20:35:18.755Z,7.90
2023-04-24T20:39:16.731Z,8.80
2023-04-24T20:43:14.862Z,8.20
2023-04-24T20:47:12.663Z,8.20
2023-04-24T20:51:10.716Z,8.60
2023-04-24T20:55:08.854Z,8.30
2023-04-24T20:59:06.777Z,9.50
2023-04-24T21:03:04.842Z,8.70
2023-04-24T21:07:02.744Z,9.70
2023-04-24T21:11:00.712Z,8.40
2023-04-24T21:14:58.748Z,7.90
2023-04-24T21:18:56.721Z,7.90
2023-04-24T21:22:54.702Z,8.10
2023-04-24T21:26:53.755Z,7.60
2023-04-24T21:30:51.733Z,7.10
2023-04-24T21:34:49.742Z,7.40
2023-04-24T21:38:47.687Z,8.10
2023-04-24T21:42:45.667Z,7.30
2023-04-24T21:46:43.924Z,8.10
2023-04-24T21:50:41.760Z,7.80
2023-04-24T21:54:39.703Z,7.80
2023-04-24T21:58:37.703Z,8.30
2023-04-24T22:02:35.898Z,8.20
2023-04-24T22:06:33.752Z,7.70
2023-04-24T22:10:32.645Z,8.10
2023-04-24T22:14:31.752Z,8.00
2023-04-24T22:18:40.055Z,8.50
2023-04-24T22:22:44.621Z,8.20
2023-04-24T22:26:42.694Z,8.20
2023-04-24T22:30:40.677Z,7.70
2023-04-24T22:34:38.757Z,8.50
2023-04-24T22:38:36.602Z,9.60
2023-04-24T22:42:34.602Z,8.50
2023-04-24T22:46:32.550Z,8.80
2023-04-24T22:50:30.655Z,9.10
2023-04-24T22:54:29.934Z,9.20
2023-04-24T22:58:27.641Z,9.00
2023-04-24T23:02:25.706Z,9.20
2023-04-24T23:06:24.550Z,9.20
2023-04-24T23:10:22.556Z,8.50
2023-04-24T23:14:20.584Z,8.90
2023-04-24T23:18:18.651Z,8.80
2023-04-24T23:22:16.547Z,8.60
2023-04-24T23:26:14.570Z,8.50
2023-04-24T23:30:13.525Z,8.40
2023-04-24T23:34:11.601Z,9.70
2023-04-24T23:38:09.589Z,9.30
2023-04-24T23:42:09.510Z,9.10
2023-04-24T23:46:07.576Z,8.30
2023-04-24T23:50:05.492Z,8.60
2023-04-24T23:54:03.545Z,8.40
2023-04-24T23:58:01.534Z,8.10
